createdAt,value
2024-02-24T00:04:43.860Z,3.40
2024-02-24T00:10:07.974Z,1.85
2024-02-24T00:15:30.863Z,3.47
2024-02-24T00:20:55.240Z,2.33
2024-02-24T00:26:18.164Z,3.83
2024-02-24T00:31:42.012Z,3.92
2024-02-24T00:37:06.520Z,4.03
2024-02-24T00:42:29.674Z,2.38
2024-02-24T00:47:55.245Z,5.65
2024-02-24T00:53:19.551Z,3.75
2024-02-24T00:58:42.460Z,2.65
2024-02-24T01:04:05.653Z,5.72
2024-02-24T01:09:29.926Z,9.15
2024-02-24T01:14:57.022Z,6.95
2024-02-24T01:20:21.097Z,5.90
2024-02-24T01:25:46.874Z,8.07
2024-02-24T01:31:09.743Z,8.00
2024-02-24T01:36:32.870Z,10.35
2024-02-24T01:41:57.161Z,5.13
2024-02-24T01:47:20.428Z,5.95
2024-02-24T01:52:47.539Z,6.13
2024-02-24T01:58:12.227Z,8.60
2024-02-24T02:08:58.659Z,9.18
2024-02-24T02:14:22.931Z,7.57
2024-02-24T02:19:46.072Z,3.65
2024-02-24T02:25:12.619Z,3.00
2024-02-24T02:30:35.493Z,5.60
2024-02-24T02:35:58.327Z,8.38
2024-02-24T02:41:22.583Z,5.00
2024-02-24T02:46:47.773Z,5.55
2024-02-24T02:52:10.619Z,5.60
2024-02-24T02:57:34.814Z,6.03
2024-02-24T03:02:57.700Z,3.38
2024-02-24T03:08:20.536Z,5.32
2024-02-24T03:13:44.697Z,5.80
2024-02-24T03:19:08.331Z,2.30
2024-02-24T03:24:31.130Z,4.53
2024-02-24T03:29:55.507Z,3.83
2024-02-24T03:35:18.495Z,2.45
2024-02-24T03:40:41.608Z,4.57
2024-02-24T03:46:06.770Z,2.95
2024-02-24T03:51:29.647Z,4.63
2024-02-24T03:56:53.180Z,3.38
2024-02-24T04:02:17.431Z,3.53
2024-02-24T04:07:40.371Z,3.33
2024-02-24T04:13:03.190Z,3.97
2024-02-24T04:18:27.543Z,3.28
2024-02-24T04:23:50.788Z,3.30
2024-02-24T04:29:13.660Z,4.60
2024-02-24T04:34:40.144Z,3.88
2024-02-24T04:40:03.025Z,3.15
2024-02-24T04:45:28.989Z,5.45
2024-02-24T04:50:53.249Z,3.92
2024-02-24T04:56:17.918Z,3.50
2024-02-24T05:07:06.855Z,3.27
2024-02-24T05:12:32.331Z,3.60
2024-02-24T05:17:55.349Z,3.58
2024-02-24T05:23:19.627Z,3.40
2024-02-24T05:28:42.484Z,2.22
2024-02-24T05:34:06.350Z,3.30
2024-02-24T05:39:30.596Z,2.93
2024-02-24T05:44:53.580Z,3.42
2024-02-24T05:50:16.684Z,5.50
2024-02-24T05:55:40.954Z,5.18
2024-02-24T06:01:04.617Z,2.78
2024-02-24T06:06:32.319Z,11.50
2024-02-24T06:11:56.644Z,4.40
2024-02-24T06:17:19.797Z,5.57
2024-02-24T06:22:42.655Z,8.32
2024-02-24T06:28:11.517Z,26.75
2024-02-24T06:33:34.659Z,18.15
2024-02-24T06:38:58.128Z,17.00
2024-02-24T06:44:22.332Z,19.00
2024-02-24T06:49:46.420Z,7.85
2024-02-24T06:55:09.663Z,7.20
2024-02-24T07:00:33.925Z,3.67
2024-02-24T07:05:56.982Z,3.35
2024-02-24T07:11:20.105Z,3.70
2024-02-24T07:16:44.457Z,1.63
2024-02-24T07:22:07.310Z,2.83
2024-02-24T07:27:30.605Z,2.20
2024-02-24T07:32:54.944Z,1.80
2024-02-24T07:38:17.954Z,1.63
2024-02-24T07:43:40.838Z,2.00
2024-02-24T07:49:05.281Z,1.70
2024-02-24T07:54:28.176Z,3.17
2024-02-24T07:59:51.066Z,2.60
2024-02-24T08:05:15.398Z,1.60
2024-02-24T08:10:38.313Z,1.23
2024-02-24T08:16:05.858Z,2.97
2024-02-24T08:21:32.400Z,2.40
2024-02-24T08:26:58.251Z,2.95
2024-02-24T08:32:21.262Z,2.15
2024-02-24T08:37:45.572Z,1.45
2024-02-24T08:43:08.483Z,1.60
2024-02-24T08:48:31.380Z,3.72
2024-02-24T08:53:55.908Z,2.33
2024-02-24T08:59:18.884Z,1.35
2024-02-24T09:04:41.839Z,1.73
2024-02-24T09:10:09.031Z,2.22
2024-02-24T09:15:32.534Z,2.90
2024-02-24T09:20:55.558Z,1.33
2024-02-24T09:26:20.366Z,1.10
2024-02-24T09:37:06.656Z,1.70
2024-02-24T09:42:30.881Z,2.33
2024-02-24T09:47:55.261Z,1.00
2024-02-24T09:53:18.290Z,0.80
2024-02-24T09:58:43.686Z,2.80
2024-02-24T10:04:08.230Z,4.40
2024-02-24T10:09:31.480Z,0.70
2024-02-24T10:14:56.929Z,2.90
2024-02-24T10:20:19.849Z,2.03
2024-02-24T10:25:42.851Z,0.60
2024-02-24T10:31:07.428Z,1.85
2024-02-24T10:36:30.460Z,2.38
2024-02-24T10:41:54.773Z,1.63
2024-02-24T10:47:19.401Z,0.80
2024-02-24T10:52:42.907Z,1.88
2024-02-24T10:58:06.458Z,1.50
2024-02-24T11:03:32.005Z,0.80
2024-02-24T11:08:55.540Z,1.42
2024-02-24T11:14:18.793Z,1.20
2024-02-24T11:19:44.301Z,1.38
2024-02-24T11:25:07.920Z,1.17
2024-02-24T11:30:46.825Z,1.17
2024-02-24T11:36:12.779Z,1.15
2024-02-24T11:41:38.012Z,2.08
2024-02-24T11:47:00.910Z,2.08
2024-02-24T11:52:25.401Z,0.98
2024-02-24T11:57:48.325Z,0.90
2024-02-24T12:03:13.148Z,1.27
2024-02-24T12:14:01.023Z,0.85
2024-02-24T12:19:26.294Z,1.23
2024-02-24T12:24:50.655Z,1.38
2024-02-24T12:30:14.410Z,1.00
2024-02-24T12:35:38.730Z,2.20
2024-02-24T12:41:08.669Z,1.20
2024-02-24T12:46:31.654Z,2.15
2024-02-24T12:51:54.920Z,3.50
2024-02-24T12:57:19.166Z,1.42
2024-02-24T13:02:42.569Z,0.52
2024-02-24T13:08:06.291Z,0.38
2024-02-24T13:13:30.536Z,0.80
2024-02-24T13:18:53.445Z,0.25
2024-02-24T13:24:16.335Z,0.30
2024-02-24T13:29:40.673Z,0.60
2024-02-24T13:35:05.132Z,1.10
2024-02-24T13:40:28.126Z,1.35
2024-02-24T13:45:52.485Z,0.55
2024-02-24T13:51:15.354Z,0.50
2024-02-24T13:56:38.301Z,0.75
2024-02-24T14:02:02.541Z,1.58
2024-02-24T14:07:25.470Z,0.50
2024-02-24T14:12:48.348Z,1.17
2024-02-24T14:18:12.675Z,1.38
2024-02-24T14:23:35.612Z,0.50
2024-02-24T14:29:01.375Z,0.50
2024-02-24T14:34:27.024Z,0.63
2024-02-24T14:45:12.681Z,1.83
2024-02-24T14:50:37.160Z,1.10
2024-02-24T14:56:00.229Z,0.65
2024-02-24T15:01:23.169Z,1.20
2024-02-24T15:06:48.358Z,1.17
2024-02-24T15:12:11.346Z,0.55
2024-02-24T15:17:34.262Z,0.50
2024-02-24T15:22:58.559Z,0.30
2024-02-24T15:28:23.443Z,1.85
2024-02-24T15:33:46.291Z,1.77
2024-02-24T15:39:10.640Z,0.40
2024-02-24T15:44:33.627Z,0.38
2024-02-24T15:49:56.667Z,0.80
2024-02-24T15:55:20.901Z,1.15
2024-02-24T16:00:44.678Z,2.20
2024-02-24T16:06:07.917Z,1.40
2024-02-24T16:11:32.479Z,1.40
2024-02-24T16:16:55.498Z,1.10
2024-02-24T16:22:18.361Z,1.63
2024-02-24T16:27:43.383Z,1.13
2024-02-24T16:38:29.572Z,3.63
2024-02-24T16:43:53.815Z,6.32
2024-02-24T16:49:19.204Z,3.42
2024-02-24T16:54:42.324Z,5.35
2024-02-24T17:00:10.024Z,2.33
2024-02-24T17:05:33.138Z,2.92
2024-02-24T17:10:56.086Z,2.50
2024-02-24T17:16:23.565Z,1.42
2024-02-24T17:21:46.510Z,1.95
2024-02-24T17:27:09.568Z,1.23
2024-02-24T17:32:33.960Z,2.20
2024-02-24T17:37:56.924Z,1.83
2024-02-24T17:43:19.829Z,1.83
2024-02-24T17:48:44.233Z,1.70
2024-02-24T17:54:07.297Z,0.98
2024-02-24T17:59:30.475Z,1.92
2024-02-24T18:04:57.488Z,2.25
2024-02-24T18:10:20.755Z,2.90
2024-02-24T18:15:50.352Z,3.58
2024-02-24T18:21:19.150Z,3.95
2024-02-24T18:26:43.216Z,2.45
2024-02-24T18:32:06.534Z,4.30
2024-02-24T18:37:30.842Z,1.40
2024-02-24T18:42:53.733Z,1.92
2024-02-24T18:48:16.891Z,1.65
2024-02-24T18:53:41.234Z,1.10
2024-02-24T18:59:06.743Z,2.13
2024-02-24T19:04:29.659Z,2.63
2024-02-24T19:09:55.591Z,5.55
2024-02-24T19:15:19.983Z,2.50
2024-02-24T19:20:42.994Z,1.95
2024-02-24T19:26:07.579Z,1.75
2024-02-24T19:31:30.502Z,2.65
2024-02-24T19:36:53.529Z,3.83
2024-02-24T19:42:17.738Z,1.80
2024-02-24T19:47:41.259Z,6.68
2024-02-24T19:53:04.469Z,4.07
2024-02-24T19:58:34.886Z,2.05
2024-02-24T20:04:02.269Z,2.38
2024-02-24T20:09:25.184Z,2.72
2024-02-24T20:14:51.037Z,3.00
2024-02-24T20:20:14.068Z,2.70
2024-02-24T20:25:36.984Z,3.80
2024-02-24T20:31:01.320Z,2.50
2024-02-24T20:36:24.228Z,3.47
2024-02-24T20:41:47.218Z,2.33
2024-02-24T20:47:11.594Z,3.60
2024-02-24T20:52:36.969Z,2.03
2024-02-24T20:57:59.867Z,2.30
2024-02-24T21:03:24.172Z,1.92
2024-02-24T21:08:47.184Z,1.90
2024-02-24T21:14:17.832Z,3.28
2024-02-24T21:19:42.346Z,3.78
2024-02-24T21:25:08.410Z,2.03
2024-02-24T21:30:31.392Z,4.47
2024-02-24T21:35:55.620Z,1.75
2024-02-24T21:41:18.762Z,4.05
2024-02-24T21:46:41.823Z,3.72
2024-02-24T21:52:08.622Z,2.63
2024-02-24T21:57:33.292Z,3.00
2024-02-24T22:02:56.455Z,1.98
2024-02-24T22:08:20.911Z,3.88
2024-02-24T22:13:45.506Z,2.22
2024-02-24T22:19:08.579Z,3.63
2024-02-24T22:24:32.923Z,3.65
2024-02-24T22:30:05.091Z,2.90
2024-02-24T22:35:36.146Z,3.88
2024-02-24T22:41:00.472Z,2.70
2024-02-24T22:46:24.368Z,1.92
2024-02-24T22:51:47.253Z,2.70
2024-02-24T22:57:11.556Z,2.15
2024-02-24T23:02:34.454Z,2.00
2024-02-24T23:07:57.305Z,4.05
2024-02-24T23:13:21.884Z,3.13
2024-02-24T23:18:45.544Z,2.45
2024-02-24T23:24:08.812Z,2.83
2024-02-24T23:29:33.224Z,4.22
2024-02-24T23:34:56.135Z,3.28
2024-02-24T23:40:19.174Z,3.33
2024-02-24T23:45:44.201Z,4.47
2024-02-24T23:51:07.136Z,2.42
2024-02-24T23:56:30.180Z,2.67
